createdAt,value
2023-04-06T00:00:01.133Z,2.10
2023-04-06T00:02:29.457Z,1.93
2023-04-06T00:04:57.750Z,1.96
2023-04-06T00:07:26.287Z,1.93
2023-04-06T00:09:54.455Z,1.77
2023-04-06T00:12:22.820Z,1.65
2023-04-06T00:14:51.082Z,1.62
2023-04-06T00:17:20.773Z,1.57
2023-04-06T00:19:49.066Z,1.50
2023-04-06T00:22:17.224Z,1.48
2023-04-06T00:24:45.624Z,1.65
2023-04-06T00:27:13.803Z,1.57
2023-04-06T00:29:42.033Z,1.52
2023-04-06T00:32:11.450Z,1.44
2023-04-06T00:34:41.233Z,1.28
2023-04-06T00:37:09.529Z,1.35
2023-04-06T00:39:37.815Z,1.45
2023-04-06T00:42:09.983Z,1.39
2023-04-06T00:44:38.463Z,1.22
2023-04-06T00:47:06.788Z,1.17
2023-04-06T00:49:35.120Z,1.19
2023-04-06T00:52:04.778Z,1.20
2023-04-06T00:54:32.996Z,1.08
2023-04-06T00:57:01.526Z,0.93
2023-04-06T00:59:30.081Z,0.91
2023-04-06T01:01:58.383Z,0.90
2023-04-06T01:04:26.827Z,0.85
2023-04-06T01:07:10.968Z,0.71
2023-04-06T01:09:42.357Z,0.59
2023-04-06T01:12:10.875Z,0.63
2023-04-06T01:14:39.049Z,0.60
2023-04-06T01:17:07.509Z,0.73
2023-04-06T01:19:36.697Z,0.77
2023-04-06T01:22:05.487Z,0.70
2023-04-06T01:24:35.391Z,0.72
2023-04-06T01:27:03.620Z,0.66
2023-04-06T01:29:31.871Z,0.81
2023-04-06T01:32:00.380Z,0.87
2023-04-06T01:34:28.608Z,0.89
2023-04-06T01:36:56.999Z,0.83
2023-04-06T01:39:25.319Z,0.83
2023-04-06T01:41:54.894Z,0.71
2023-04-06T01:44:23.417Z,0.84
2023-04-06T01:46:51.723Z,0.90
2023-04-06T01:49:20.074Z,0.74
2023-04-06T01:51:48.281Z,0.65
2023-04-06T01:54:16.560Z,0.73
2023-04-06T01:56:44.904Z,0.67
2023-04-06T01:59:14.522Z,0.61
2023-04-06T02:01:42.922Z,0.55
2023-04-06T02:04:11.333Z,0.48
2023-04-06T02:06:39.720Z,0.52
2023-04-06T02:09:08.214Z,0.41
2023-04-06T02:11:36.623Z,0.36
2023-04-06T02:14:05.708Z,0.36
2023-04-06T02:16:35.440Z,0.26
2023-04-06T02:19:03.746Z,0.19
2023-04-06T02:21:49.864Z,0.23
2023-04-06T02:24:18.135Z,0.36
2023-04-06T02:26:46.334Z,0.25
2023-04-06T02:29:14.845Z,0.27
2023-04-06T02:31:44.523Z,0.24
2023-04-06T02:34:18.342Z,0.19
2023-04-06T02:36:46.826Z,0.25
2023-04-06T02:39:15.466Z,0.13
2023-04-06T02:41:43.643Z,0.14
2023-04-06T02:44:11.959Z,0.17
2023-04-06T02:46:40.349Z,0.18
2023-04-06T02:49:10.218Z,0.18
2023-04-06T02:51:38.575Z,0.19
2023-04-06T02:54:06.940Z,0.09
2023-04-06T02:56:35.449Z,0.07
2023-04-06T02:59:03.766Z,0.07
2023-04-06T03:01:32.460Z,0.08
2023-04-06T03:04:00.734Z,0.09
2023-04-06T03:06:31.324Z,0.06
2023-04-06T03:08:59.584Z,-0.05
2023-04-06T03:11:28.480Z,0.14
2023-04-06T03:13:56.799Z,0.10
2023-04-06T03:16:25.183Z,0.30
2023-04-06T03:18:53.630Z,0.16
2023-04-06T03:21:21.890Z,0.11
2023-04-06T03:23:52.065Z,0.06
2023-04-06T03:26:20.502Z,0.06
2023-04-06T03:28:48.796Z,-0.04
2023-04-06T03:31:17.081Z,-0.02
2023-04-06T03:33:45.377Z,-0.15
2023-04-06T03:36:25.225Z,0.05
2023-04-06T03:38:55.450Z,0.15
2023-04-06T03:41:23.670Z,0.22
2023-04-06T03:43:52.125Z,0.20
2023-04-06T03:46:20.346Z,0.07
2023-04-06T03:48:50.560Z,0.07
2023-04-06T03:51:18.913Z,0.04
2023-04-06T03:53:47.252Z,0.00
2023-04-06T03:56:16.782Z,-0.01
2023-04-06T03:58:46.206Z,-0.11
2023-04-06T04:01:14.415Z,-0.19
2023-04-06T04:03:43.003Z,-0.20
2023-04-06T04:06:11.350Z,-0.22
2023-04-06T04:08:39.704Z,-0.33
2023-04-06T04:11:07.924Z,-0.37
2023-04-06T04:13:37.570Z,-0.24
2023-04-06T04:16:06.485Z,-0.28
2023-04-06T04:18:34.849Z,-0.24
2023-04-06T04:21:03.185Z,-0.28
2023-04-06T04:23:31.583Z,-0.38
2023-04-06T04:25:59.765Z,-0.43
2023-04-06T04:28:31.944Z,-0.25
2023-04-06T04:31:01.616Z,-0.18
2023-04-06T04:33:29.888Z,-0.20
2023-04-06T04:35:58.394Z,-0.28
2023-04-06T04:38:26.829Z,-0.41
2023-04-06T04:40:55.412Z,-0.51
2023-04-06T04:43:23.644Z,-0.53
2023-04-06T04:45:51.910Z,-0.49
2023-04-06T04:48:21.616Z,-0.44
2023-04-06T04:50:49.876Z,-0.47
2023-04-06T04:53:18.147Z,-0.58
2023-04-06T04:55:46.470Z,-0.47
2023-04-06T04:58:17.438Z,-0.50
2023-04-06T05:00:45.899Z,-0.43
2023-04-06T05:03:19.090Z,-0.45
2023-04-06T05:05:48.855Z,-0.41
2023-04-06T05:08:17.634Z,-0.41
2023-04-06T05:10:46.362Z,-0.27
2023-04-06T05:13:14.663Z,-0.21
2023-04-06T05:15:43.412Z,-0.17
2023-04-06T05:18:12.265Z,-0.10
2023-04-06T05:20:41.423Z,-0.09
2023-04-06T05:23:11.324Z,0.00
2023-04-06T05:25:39.591Z,0.03
2023-04-06T05:28:07.835Z,0.08
2023-04-06T05:30:37.218Z,0.15
2023-04-06T05:33:05.520Z,0.21
2023-04-06T05:35:33.813Z,0.23
2023-04-06T05:38:02.479Z,0.28
2023-04-06T05:40:32.021Z,0.44
2023-04-06T05:43:00.603Z,0.52
2023-04-06T05:45:29.651Z,0.59
2023-04-06T05:47:57.992Z,0.67
2023-04-06T05:50:26.312Z,0.87
2023-04-06T05:52:54.544Z,1.01
2023-04-06T05:55:22.862Z,1.18
2023-04-06T05:57:52.451Z,1.34
2023-04-06T06:00:21.131Z,1.48
2023-04-06T06:02:49.720Z,1.57
2023-04-06T06:05:18.142Z,1.67
2023-04-06T06:07:47.647Z,1.79
2023-04-06T06:10:16.046Z,1.93
2023-04-06T06:12:44.668Z,2.09
2023-04-06T06:15:14.611Z,2.27
2023-04-06T06:17:42.844Z,2.47
2023-04-06T06:20:11.501Z,2.65
2023-04-06T06:22:41.071Z,2.85
2023-04-06T06:25:09.790Z,3.03
2023-04-06T06:27:38.135Z,3.22
2023-04-06T06:30:07.034Z,3.39
2023-04-06T06:32:36.713Z,3.55
2023-04-06T06:35:05.120Z,3.72
2023-04-06T06:37:33.536Z,3.86
2023-04-06T06:40:01.813Z,4.02
2023-04-06T06:42:30.142Z,4.10
2023-04-06T06:44:58.532Z,4.27
2023-04-06T06:47:27.155Z,4.42
2023-04-06T06:49:56.831Z,4.61
2023-04-06T06:52:25.180Z,4.80
2023-04-06T06:54:54.943Z,4.91
2023-04-06T06:57:24.882Z,5.11
2023-04-06T06:59:53.074Z,5.27
2023-04-06T07:02:21.342Z,5.41
2023-04-06T07:04:49.908Z,5.27
2023-04-06T07:07:19.617Z,5.63
2023-04-06T07:09:47.977Z,5.78
2023-04-06T07:12:17.538Z,5.89
2023-04-06T07:14:45.934Z,5.97
2023-04-06T07:17:14.186Z,6.23
2023-04-06T07:19:42.757Z,6.39
2023-04-06T07:22:11.120Z,7.31
2023-04-06T07:24:40.744Z,8.59
2023-04-06T07:27:09.217Z,10.15
2023-04-06T07:29:37.573Z,11.17
2023-04-06T07:32:06.152Z,11.63
2023-04-06T07:34:34.691Z,13.19
2023-04-06T07:37:04.212Z,13.69
2023-04-06T07:39:32.611Z,14.84
2023-04-06T07:42:02.544Z,15.85
2023-04-06T07:44:31.051Z,16.11
2023-04-06T07:47:02.049Z,17.12
2023-04-06T07:49:30.320Z,18.25
2023-04-06T07:51:58.540Z,18.44
2023-04-06T07:54:27.053Z,19.84
2023-04-06T07:56:55.439Z,20.38
2023-04-06T07:59:25.467Z,19.80
2023-04-06T08:01:53.787Z,20.52
2023-04-06T08:04:22.239Z,20.82
2023-04-06T08:06:50.905Z,20.26
2023-04-06T08:09:19.408Z,20.14
2023-04-06T08:11:49.582Z,19.71
2023-04-06T08:14:17.906Z,18.14
2023-04-06T08:16:47.554Z,18.88
2023-04-06T08:19:19.865Z,18.40
2023-04-06T08:21:48.150Z,19.50
2023-04-06T08:24:16.574Z,19.79
2023-04-06T08:26:45.017Z,21.14
2023-04-06T08:29:13.278Z,20.46
2023-04-06T08:31:41.870Z,19.73
2023-04-06T08:34:13.917Z,20.77
2023-04-06T08:36:42.899Z,22.95
2023-04-06T08:39:11.148Z,23.14
2023-04-06T08:41:39.706Z,24.75
2023-04-06T08:44:08.015Z,25.38
2023-04-06T08:46:36.752Z,24.47
2023-04-06T08:49:07.667Z,23.21
2023-04-06T08:51:39.702Z,21.34
2023-04-06T08:54:08.453Z,19.93
2023-04-06T08:56:39.739Z,19.78
2023-04-06T08:59:08.406Z,18.42
2023-04-06T09:01:42.105Z,17.18
2023-04-06T09:04:12.306Z,17.62
2023-04-06T09:06:43.285Z,16.77
2023-04-06T09:09:12.548Z,16.63
2023-04-06T09:11:47.119Z,16.10
2023-04-06T09:14:16.018Z,16.90
2023-04-06T09:16:46.118Z,16.85
2023-04-06T09:19:14.649Z,16.97
2023-04-06T09:21:44.531Z,16.47
2023-04-06T09:24:12.940Z,17.08
2023-04-06T09:26:48.549Z,15.77
2023-04-06T09:29:24.486Z,15.23
2023-04-06T09:31:52.992Z,14.95
2023-04-06T09:34:24.906Z,14.86
2023-04-06T09:36:54.676Z,14.80
2023-04-06T09:39:24.045Z,15.35
2023-04-06T09:41:52.649Z,14.13
2023-04-06T09:44:21.241Z,14.68
2023-04-06T09:46:58.807Z,15.39
2023-04-06T09:49:29.340Z,15.94
2023-04-06T09:52:00.754Z,16.41
2023-04-06T09:54:30.833Z,17.12
2023-04-06T09:57:03.129Z,18.32
2023-04-06T09:59:39.109Z,20.51
2023-04-06T10:02:07.928Z,20.32
2023-04-06T10:04:42.247Z,19.87
2023-04-06T10:07:14.050Z,20.94
2023-04-06T10:09:42.894Z,19.67
2023-04-06T10:12:11.385Z,18.72
2023-04-06T10:14:40.266Z,20.00
2023-04-06T10:17:08.616Z,19.50
2023-04-06T10:19:41.466Z,19.00
2023-04-06T10:22:10.806Z,18.99
2023-04-06T10:24:40.433Z,18.78
2023-04-06T10:27:12.315Z,17.24
2023-04-06T10:29:45.118Z,18.38
2023-04-06T10:32:14.055Z,18.97
2023-04-06T10:34:42.354Z,19.22
2023-04-06T10:37:54.093Z,18.47
2023-04-06T10:40:26.988Z,18.07
2023-04-06T10:42:56.248Z,18.19
2023-04-06T10:45:35.566Z,17.60
2023-04-06T10:48:14.263Z,17.41
2023-04-06T10:50:43.382Z,17.32
2023-04-06T10:53:11.779Z,16.27
2023-04-06T10:55:42.757Z,17.20
2023-04-06T10:58:11.084Z,17.55
2023-04-06T11:03:15.692Z,16.68
2023-04-06T11:05:47.698Z,18.10
2023-04-06T11:08:26.944Z,17.23
2023-04-06T11:11:07.585Z,18.52
2023-04-06T11:13:40.691Z,17.42
2023-04-06T11:16:13.836Z,17.65
2023-04-06T11:18:48.991Z,17.76
2023-04-06T11:21:17.601Z,18.62
2023-04-06T11:23:45.908Z,19.81
2023-04-06T11:26:15.850Z,19.88
2023-04-06T11:28:44.408Z,19.89
2023-04-06T11:31:12.932Z,19.73
2023-04-06T11:36:45.548Z,17.83
2023-04-06T11:39:14.097Z,18.84
2023-04-06T11:41:44.380Z,17.20
2023-04-06T11:44:12.793Z,18.55
2023-04-06T11:46:41.246Z,18.57
2023-04-06T11:49:17.238Z,18.24
2023-04-06T11:51:45.722Z,17.75
2023-04-06T11:54:13.999Z,18.02
2023-04-06T11:56:42.304Z,17.18
2023-04-06T11:59:14.434Z,16.70
2023-04-06T12:01:47.236Z,16.73
2023-04-06T12:04:15.655Z,16.91
2023-04-06T12:06:44.319Z,17.16
2023-04-06T12:09:12.553Z,15.90
2023-04-06T12:11:41.791Z,15.74
2023-04-06T12:14:10.506Z,15.96
2023-04-06T12:16:40.514Z,16.40
2023-04-06T12:19:09.122Z,17.38
2023-04-06T12:21:41.437Z,18.87
2023-04-06T12:24:10.664Z,18.16
2023-04-06T12:26:39.102Z,18.04
2023-04-06T12:29:08.889Z,17.59
2023-04-06T12:31:39.375Z,17.52
2023-04-06T12:34:09.230Z,18.10
2023-04-06T12:36:38.894Z,16.64
2023-04-06T12:39:07.262Z,17.06
2023-04-06T12:41:35.672Z,17.48
2023-04-06T12:44:04.104Z,18.66
2023-04-06T12:46:32.701Z,19.57
2023-04-06T12:49:02.006Z,18.87
2023-04-06T12:51:32.196Z,19.14
2023-04-06T12:54:00.631Z,20.47
2023-04-06T12:56:28.911Z,19.83
2023-04-06T12:58:57.480Z,20.76
2023-04-06T13:01:26.675Z,20.73
2023-04-06T13:03:55.065Z,20.41
2023-04-06T13:06:23.309Z,18.43
2023-04-06T13:08:52.997Z,17.77
2023-04-06T13:11:25.071Z,16.75
2023-04-06T13:13:54.652Z,16.72
2023-04-06T13:16:23.188Z,16.48
2023-04-06T13:18:52.000Z,15.72
2023-04-06T13:21:21.668Z,15.07
2023-04-06T13:23:49.956Z,14.46
2023-04-06T13:26:19.956Z,14.71
2023-04-06T13:28:48.782Z,14.52
2023-04-06T13:31:17.002Z,14.24
2023-04-06T13:33:45.314Z,13.74
2023-04-06T13:36:14.696Z,14.02
2023-04-06T13:38:45.233Z,14.14
2023-04-06T13:41:21.778Z,13.90
2023-04-06T13:43:50.738Z,13.51
2023-04-06T13:46:19.295Z,12.96
2023-04-06T13:48:48.019Z,13.21
2023-04-06T13:51:16.476Z,13.41
2023-04-06T13:53:46.846Z,13.02
2023-04-06T13:56:16.914Z,13.46
2023-04-06T13:58:46.913Z,12.79
2023-04-06T14:01:40.664Z,12.57
2023-04-06T14:04:09.175Z,12.50
2023-04-06T14:06:38.490Z,12.77
2023-04-06T14:09:06.752Z,12.36
2023-04-06T14:11:36.172Z,12.50
2023-04-06T14:14:05.888Z,12.73
2023-04-06T14:16:34.363Z,12.74
2023-04-06T14:19:02.650Z,12.82
2023-04-06T14:21:30.950Z,12.60
2023-04-06T14:23:59.872Z,12.37
2023-04-06T14:26:28.612Z,12.49
2023-04-06T14:28:56.990Z,12.64
2023-04-06T14:31:27.339Z,12.66
2023-04-06T14:33:55.753Z,12.17
2023-04-06T14:36:24.691Z,12.09
2023-04-06T14:38:53.265Z,12.30
2023-04-06T14:41:24.162Z,11.80
2023-04-06T14:43:53.555Z,11.69
2023-04-06T14:46:22.429Z,11.53
2023-04-06T14:48:52.388Z,11.89
2023-04-06T14:51:20.743Z,11.84
2023-04-06T14:53:49.215Z,11.84
2023-04-06T14:56:21.415Z,11.79
2023-04-06T14:58:49.728Z,11.66
2023-04-06T15:01:18.005Z,11.76
2023-04-06T15:03:46.632Z,11.62
2023-04-06T15:06:17.178Z,11.60
2023-04-06T15:08:45.615Z,11.56
2023-04-06T15:11:14.555Z,11.52
2023-04-06T15:13:42.979Z,11.16
2023-04-06T15:16:11.304Z,11.21
2023-04-06T15:18:39.692Z,11.13
2023-04-06T15:21:08.166Z,11.30
2023-04-06T15:23:37.809Z,11.33
2023-04-06T15:26:06.088Z,11.39
2023-04-06T15:28:34.378Z,11.16
2023-04-06T15:31:07.133Z,11.07
2023-04-06T15:33:35.655Z,11.07
2023-04-06T15:36:05.616Z,11.05
2023-04-06T15:38:34.682Z,11.04
2023-04-06T15:41:05.234Z,10.95
2023-04-06T15:43:33.566Z,10.68
2023-04-06T15:46:03.341Z,10.67
2023-04-06T15:48:33.037Z,10.57
2023-04-06T15:51:01.505Z,10.67
2023-04-06T15:53:29.844Z,10.79
2023-04-06T15:55:59.855Z,10.72
2023-04-06T15:58:31.839Z,10.65
2023-04-06T16:01:00.106Z,10.52
2023-04-06T16:03:28.705Z,10.44
2023-04-06T16:06:08.187Z,10.10
2023-04-06T16:08:37.583Z,10.04
2023-04-06T16:11:05.986Z,9.96
2023-04-06T16:13:35.931Z,10.05
2023-04-06T16:16:05.892Z,10.02
2023-04-06T16:18:36.193Z,9.98
2023-04-06T16:21:05.432Z,9.96
2023-04-06T16:23:34.175Z,9.84
2023-04-06T16:26:02.373Z,9.68
2023-04-06T16:28:31.404Z,9.59
2023-04-06T16:31:01.500Z,9.56
2023-04-06T16:33:29.960Z,9.42
2023-04-06T16:35:58.172Z,9.30
2023-04-06T16:38:31.665Z,9.08
2023-04-06T16:41:03.126Z,8.70
2023-04-06T16:43:32.222Z,8.44
2023-04-06T16:46:01.893Z,8.30
2023-04-06T16:48:30.384Z,8.11
2023-04-06T16:50:58.644Z,7.92
2023-04-06T16:53:26.908Z,7.78
2023-04-06T16:55:55.317Z,7.62
2023-04-06T16:58:23.695Z,7.54
2023-04-06T17:00:51.955Z,7.45
2023-04-06T17:03:21.735Z,7.35
2023-04-06T17:05:50.042Z,7.21
2023-04-06T17:08:18.687Z,7.24
2023-04-06T17:10:59.239Z,7.13
2023-04-06T17:13:31.283Z,7.13
2023-04-06T17:16:00.167Z,7.12
2023-04-06T17:18:30.668Z,6.99
2023-04-06T17:20:59.291Z,6.94
2023-04-06T17:23:27.643Z,6.94
2023-04-06T17:25:57.842Z,6.91
2023-04-06T17:28:30.125Z,6.87
2023-04-06T17:30:58.636Z,6.81
2023-04-06T17:33:27.305Z,6.84
2023-04-06T17:35:56.946Z,6.83
2023-04-06T17:38:25.325Z,6.78
2023-04-06T17:40:53.750Z,6.79
2023-04-06T17:43:22.015Z,6.82
2023-04-06T17:45:50.947Z,6.80
2023-04-06T17:48:19.399Z,6.79
2023-04-06T17:50:47.711Z,6.79
2023-04-06T17:53:20.255Z,6.72
2023-04-06T17:55:48.609Z,6.64
2023-04-06T17:58:18.092Z,6.65
2023-04-06T18:00:46.327Z,6.69
2023-04-06T18:03:17.036Z,6.62
2023-04-06T18:05:45.555Z,6.56
2023-04-06T18:08:14.811Z,6.57
2023-04-06T18:10:47.567Z,6.50
2023-04-06T18:13:16.159Z,6.51
2023-04-06T18:15:44.452Z,6.50
2023-04-06T18:18:12.768Z,6.51
2023-04-06T18:20:41.843Z,6.45
2023-04-06T18:23:10.231Z,6.42
2023-04-06T18:25:39.191Z,6.42
2023-04-06T18:28:10.068Z,6.42
2023-04-06T18:30:38.593Z,6.47
2023-04-06T18:33:07.918Z,6.45
2023-04-06T18:35:36.171Z,6.45
2023-04-06T18:38:11.492Z,6.35
2023-04-06T18:40:40.792Z,6.41
2023-04-06T18:43:13.062Z,6.35
2023-04-06T18:45:43.288Z,6.40
2023-04-06T18:48:11.626Z,6.40
2023-04-06T18:50:40.211Z,6.39
2023-04-06T18:53:08.560Z,6.34
2023-04-06T18:55:38.230Z,6.33
2023-04-06T18:58:06.633Z,6.35
2023-04-06T19:00:36.282Z,6.26
2023-04-06T19:03:04.615Z,6.31
2023-04-06T19:05:32.912Z,6.33
2023-04-06T19:08:01.167Z,6.28
2023-04-06T19:10:30.348Z,6.26
2023-04-06T19:13:04.855Z,6.28
2023-04-06T19:15:33.654Z,6.33
2023-04-06T19:18:03.395Z,6.32
2023-04-06T19:20:34.284Z,6.32
2023-04-06T19:23:03.733Z,6.27
2023-04-06T19:25:32.784Z,6.31
2023-04-06T19:28:01.543Z,6.39
2023-04-06T19:30:30.443Z,6.34
2023-04-06T19:33:00.675Z,6.32
2023-04-06T19:35:32.770Z,6.28
2023-04-06T19:38:01.639Z,6.27
2023-04-06T19:40:30.384Z,6.23
2023-04-06T19:42:59.650Z,6.25
2023-04-06T19:45:29.787Z,6.26
2023-04-06T19:47:58.169Z,6.25
2023-04-06T19:50:26.557Z,6.35
2023-04-06T19:52:56.220Z,6.30
2023-04-06T19:55:24.585Z,6.34
2023-04-06T19:57:52.820Z,6.28
2023-04-06T20:00:22.908Z,6.29
2023-04-06T20:02:51.643Z,6.24
2023-04-06T20:05:23.088Z,6.25
2023-04-06T20:07:51.720Z,6.27
2023-04-06T20:10:21.377Z,6.26
2023-04-06T20:12:50.495Z,6.27
2023-04-06T20:15:18.980Z,6.24
2023-04-06T20:17:49.216Z,6.30
2023-04-06T20:20:17.605Z,6.24
2023-04-06T20:22:46.142Z,6.27
2023-04-06T20:25:14.510Z,6.18
2023-04-06T20:27:45.260Z,6.19
2023-04-06T20:30:14.157Z,6.19
2023-04-06T20:32:42.853Z,6.16
2023-04-06T20:35:11.276Z,6.14
2023-04-06T20:37:39.646Z,6.27
2023-04-06T20:40:08.546Z,6.26
2023-04-06T20:42:40.152Z,6.27
2023-04-06T20:45:10.901Z,6.20
2023-04-06T20:47:39.608Z,6.19
2023-04-06T20:50:08.544Z,6.16
2023-04-06T20:52:38.077Z,6.17
2023-04-06T20:55:07.196Z,6.15
2023-04-06T20:57:35.888Z,6.18
2023-04-06T21:00:05.359Z,6.16
2023-04-06T21:02:35.369Z,6.19
2023-04-06T21:05:04.010Z,6.15
2023-04-06T21:07:32.436Z,6.26
2023-04-06T21:10:01.045Z,6.23
2023-04-06T21:12:29.404Z,6.21
2023-04-06T21:14:57.941Z,6.27
2023-04-06T21:17:26.698Z,6.27
2023-04-06T21:19:56.396Z,6.19
2023-04-06T21:22:24.829Z,6.19
2023-04-06T21:24:53.582Z,6.17
2023-04-06T21:27:24.847Z,6.13
2023-04-06T21:29:53.240Z,6.16
2023-04-06T21:32:21.618Z,6.10
2023-04-06T21:34:49.882Z,6.13
2023-04-06T21:37:19.866Z,6.16
2023-04-06T21:39:48.435Z,6.22
2023-04-06T21:42:16.641Z,6.20
2023-04-06T21:44:46.544Z,6.23
2023-04-06T21:47:14.785Z,6.19
2023-04-06T21:49:43.016Z,6.24
2023-04-06T21:52:11.365Z,6.20
2023-04-06T21:54:40.938Z,6.28
2023-04-06T21:57:09.160Z,6.24
2023-04-06T21:59:37.353Z,6.26
2023-04-06T22:02:05.983Z,6.26
2023-04-06T22:04:34.533Z,6.31
2023-04-06T22:07:02.925Z,6.31
2023-04-06T22:09:31.168Z,6.28
2023-04-06T22:12:00.799Z,6.32
2023-04-06T22:14:29.534Z,6.26
2023-04-06T22:17:00.474Z,6.27
2023-04-06T22:19:28.691Z,6.34
2023-04-06T22:21:57.332Z,6.29
2023-04-06T22:24:25.655Z,6.32
2023-04-06T22:26:54.039Z,6.32
2023-04-06T22:29:23.671Z,6.40
2023-04-06T22:31:51.977Z,6.40
2023-04-06T22:34:20.315Z,6.40
2023-04-06T22:36:48.596Z,6.36
2023-04-06T22:39:16.843Z,6.32
2023-04-06T22:41:45.693Z,6.27
2023-04-06T22:44:13.945Z,6.33
2023-04-06T22:46:43.646Z,6.39
2023-04-06T22:49:26.091Z,6.40
2023-04-06T22:51:54.472Z,6.34
2023-04-06T22:54:22.716Z,6.28
2023-04-06T22:56:51.031Z,6.38
2023-04-06T22:59:19.284Z,6.35
2023-04-06T23:01:48.908Z,6.49
2023-04-06T23:04:17.419Z,6.41
2023-04-06T23:06:46.047Z,6.34
2023-04-06T23:09:14.334Z,6.35
2023-04-06T23:11:43.175Z,6.35
2023-04-06T23:14:11.410Z,6.42
2023-04-06T23:16:39.714Z,6.38
2023-04-06T23:19:09.360Z,6.39
2023-04-06T23:21:37.607Z,6.41
2023-04-06T23:24:06.322Z,6.32
2023-04-06T23:26:34.554Z,6.32
2023-04-06T23:29:02.879Z,6.35
2023-04-06T23:31:31.122Z,6.33
2023-04-06T23:33:59.317Z,6.35
2023-04-06T23:36:28.994Z,6.34
2023-04-06T23:38:57.384Z,6.36
2023-04-06T23:41:26.254Z,6.38
2023-04-06T23:43:55.861Z,6.39
2023-04-06T23:46:24.339Z,6.40
2023-04-06T23:48:52.645Z,6.41
2023-04-06T23:51:21.138Z,6.42
2023-04-06T23:53:50.833Z,6.39
2023-04-06T23:56:19.030Z,6.36
2023-04-06T23:58:47.352Z,6.39
